Time;durP1;ratioP1;P1;durP2;ratioP2;P2;SDS_P1;SDS_P2;PMS_P1;PMS_P2;Temp;Humidity;BMP_temperature;BMP_pressure;BME280_temperature;BME280_humidity;BME280_pressure;Samples;Min_cycle;Max_cycle;Signal;HPM_P1;HPM_P2
2020/12/03 00:00:22;;;;;;;6.47;4.63;;;17.60;32.20;;;;;;8272484;28;20124;-48
2020/12/03 00:04:22;;;;;;;7.25;4.35;;;17.60;32.20;;;;;;8260465;28;20086;-46
2020/12/03 00:08:23;;;;;;;6.13;4.40;;;17.60;32.10;;;;;;8289223;28;20029;-47
2020/12/03 00:12:24;;;;;;;6.00;4.03;;;17.60;32.20;;;;;;8299064;28;20030;-45
2020/12/03 00:16:29;;;;;;;6.77;4.87;;;17.60;32.20;;;;;;8266136;28;20050;-47
2020/12/03 00:20:29;;;;;;;6.00;4.03;;;17.60;32.20;;;;;;8303662;28;20042;-47
2020/12/03 00:24:32;;;;;;;6.77;4.37;;;17.60;32.40;;;;;;8308769;28;20398;-47
2020/12/03 00:28:35;;;;;;;6.18;4.40;;;17.60;32.20;;;;;;8284074;28;20038;-46
2020/12/03 00:32:36;;;;;;;7.13;4.80;;;17.60;32.20;;;;;;8265533;28;20027;-47
2020/12/03 00:36:37;;;;;;;6.17;4.20;;;17.60;32.10;;;;;;8288932;28;20045;-47
2020/12/03 00:40:38;;;;;;;6.45;4.13;;;17.60;32.20;;;;;;8292653;28;20069;-46
2020/12/03 00:44:38;;;;;;;6.30;4.27;;;17.60;32.10;;;;;;8283156;28;20038;-48
2020/12/03 00:48:39;;;;;;;7.30;4.70;;;17.60;32.20;;;;;;8262345;28;20038;-47
2020/12/03 00:52:40;;;;;;;7.10;4.47;;;17.60;32.10;;;;;;8296517;28;20034;-46
2020/12/03 00:56:41;;;;;;;6.82;4.70;;;17.60;32.10;;;;;;8292812;28;20050;-46
2020/12/03 01:00:41;;;;;;;6.50;4.43;;;17.60;32.20;;;;;;8290485;28;20434;-48
2020/12/03 01:04:42;;;;;;;5.70;4.17;;;17.60;32.10;;;;;;8292581;28;20050;-47
2020/12/03 01:08:43;;;;;;;7.07;4.57;;;17.60;32.20;;;;;;8277994;28;20034;-49
2020/12/03 01:12:43;;;;;;;7.43;4.73;;;17.60;32.10;;;;;;8309236;28;20415;-47
2020/12/03 01:16:45;;;;;;;8.23;4.73;;;17.50;32.10;;;;;;8292173;28;20034;-48
2020/12/03 01:20:46;;;;;;;6.80;4.43;;;17.60;32.20;;;;;;8285095;28;20038;-47
2020/12/03 01:24:46;;;;;;;6.27;4.10;;;17.50;32.20;;;;;;8262468;28;20057;-47
2020/12/03 01:28:47;;;;;;;6.63;4.23;;;17.50;32.10;;;;;;8259717;28;20042;-46
2020/12/03 01:32:48;;;;;;;7.53;4.33;;;17.50;32.10;;;;;;8259743;28;20034;-47
2020/12/03 01:36:50;;;;;;;7.00;4.30;;;17.50;32.20;;;;;;8261968;28;20037;-46
2020/12/03 01:40:51;;;;;;;7.43;4.13;;;17.50;32.20;;;;;;8279792;28;20077;-47
2020/12/03 01:44:53;;;;;;;6.73;4.40;;;17.60;32.20;;;;;;8263791;28;20069;-46
2020/12/03 01:49:02;;;;;;;7.15;4.70;;;17.60;32.20;;;;;;8306512;28;20045;-47
2020/12/03 01:53:03;;;;;;;5.47;4.28;;;17.50;32.20;;;;;;8305218;28;20056;-47
2020/12/03 01:57:03;;;;;;;6.82;4.50;;;17.50;32.20;;;;;;8317394;28;20033;-47
2020/12/03 02:01:05;;;;;;;6.83;4.53;;;17.50;32.20;;;;;;8294740;28;20045;-47
2020/12/03 02:05:12;;;;;;;6.43;4.43;;;17.50;32.20;;;;;;8291570;28;20049;-48
2020/12/03 02:09:13;;;;;;;6.82;4.85;;;17.50;32.20;;;;;;8291478;28;20041;-47
2020/12/03 02:13:13;;;;;;;6.33;4.23;;;17.50;32.20;;;;;;8303801;28;20498;-47
2020/12/03 02:17:14;;;;;;;8.43;4.60;;;17.50;32.20;;;;;;8329916;28;20029;-47
2020/12/03 02:21:16;;;;;;;8.53;4.60;;;17.50;32.20;;;;;;8334601;28;20065;-48
2020/12/03 02:25:17;;;;;;;;;;;17.50;32.20;;;;;;8296248;28;20049;-47
2020/12/03 02:29:20;;;;;;;6.28;4.53;;;17.50;32.20;;;;;;8264776;28;19921;-46
2020/12/03 02:33:20;;;;;;;8.27;4.80;;;17.50;32.20;;;;;;8264609;28;20553;-47
2020/12/03 02:37:21;;;;;;;6.90;4.90;;;17.50;32.20;;;;;;8275547;28;20049;-47
2020/12/03 02:41:22;;;;;;;6.50;4.47;;;17.50;32.20;;;;;;8308744;28;20972;-46
2020/12/03 02:45:22;;;;;;;7.13;4.60;;;17.50;32.20;;;;;;8276004;28;20068;-45
2020/12/03 02:49:23;;;;;;;8.27;4.83;;;17.50;32.20;;;;;;8271997;28;20049;-47
2020/12/03 02:53:23;;;;;;;8.60;5.63;;;17.50;32.20;;;;;;8301029;28;20491;-47
2020/12/03 02:57:24;;;;;;;6.03;4.43;;;17.50;32.30;;;;;;8302858;28;20037;-46
2020/12/03 03:01:24;;;;;;;7.07;4.40;;;17.50;32.20;;;;;;8304765;28;20038;-47
2020/12/03 03:05:26;;;;;;;6.23;4.43;;;17.50;32.20;;;;;;8298857;28;20058;-47
2020/12/03 03:09:27;;;;;;;6.88;4.75;;;17.50;32.20;;;;;;8265478;28;23525;-46
2020/12/03 03:13:27;;;;;;;7.80;5.17;;;17.50;32.20;;;;;;8324358;28;20041;-46
2020/12/03 03:17:28;;;;;;;6.30;4.63;;;17.50;32.20;;;;;;8269244;28;20023;-47
2020/12/03 03:21:28;;;;;;;5.87;4.13;;;17.50;32.20;;;;;;8263328;28;20073;-47
2020/12/03 03:25:29;;;;;;;6.90;4.73;;;17.50;32.20;;;;;;8285581;28;20069;-46
2020/12/03 03:29:30;;;;;;;6.80;4.77;;;17.50;32.20;;;;;;8267551;28;20491;-47
2020/12/03 03:33:30;;;;;;;5.60;4.17;;;17.50;32.20;;;;;;8262077;28;20038;-48
2020/12/03 03:37:33;;;;;;;6.37;4.50;;;17.40;32.20;;;;;;8295330;28;20042;-47
2020/12/03 03:41:34;;;;;;;7.30;4.50;;;17.40;32.20;;;;;;8295137;28;20029;-48
2020/12/03 03:45:34;;;;;;;7.50;5.03;;;17.50;32.20;;;;;;8292996;28;20050;-47
2020/12/03 03:49:35;;;;;;;6.90;4.40;;;17.50;32.20;;;;;;8299318;28;20403;-46
2020/12/03 03:53:36;;;;;;;8.30;5.30;;;17.50;32.30;;;;;;8318484;28;20037;-46
2020/12/03 03:57:36;;;;;;;6.57;4.90;;;17.40;32.20;;;;;;8309810;28;20057;-47
2020/12/03 04:01:37;;;;;;;7.00;4.70;;;17.50;32.20;;;;;;8261955;28;20490;-48
2020/12/03 04:05:37;;;;;;;6.73;4.50;;;17.40;32.20;;;;;;8284495;28;20050;-47
2020/12/03 04:09:38;;;;;;;7.70;4.37;;;17.40;32.20;;;;;;8293264;28;20076;-48
2020/12/03 04:13:39;;;;;;;8.05;4.75;;;17.40;32.20;;;;;;8276054;28;20034;-46
2020/12/03 04:17:39;;;;;;;6.60;4.47;;;17.40;32.30;;;;;;8280753;28;20029;-47
2020/12/03 04:21:40;;;;;;;8.97;4.63;;;17.50;32.40;;;;;;8272451;28;20066;-48
2020/12/03 04:25:40;;;;;;;7.77;4.33;;;17.50;32.50;;;;;;8314388;28;20050;-46
2020/12/03 04:29:41;;;;;;;6.10;4.23;;;17.50;32.50;;;;;;8272812;28;20078;-47
2020/12/03 04:33:41;;;;;;;6.27;4.60;;;17.60;32.40;;;;;;8273839;28;20033;-47
2020/12/03 04:37:42;;;;;;;5.50;4.17;;;17.60;32.40;;;;;;8323536;28;20072;-47
2020/12/03 04:41:42;;;;;;;7.30;4.47;;;17.60;32.50;;;;;;8278817;28;20081;-48
2020/12/03 04:45:50;;;;;;;6.73;4.27;;;17.70;32.50;;;;;;8286888;28;20053;-47
2020/12/03 04:50:09;;;;;;;6.78;4.30;;;17.70;32.40;;;;;;8292842;28;20042;-46
2020/12/03 04:54:41;;;;;;;6.72;4.32;;;17.80;32.50;;;;;;8293049;28;20041;-47
2020/12/03 04:59:24;;;;;;;5.75;3.83;;;17.80;32.40;;;;;;8280596;28;20628;-47
2020/12/03 05:03:56;;;;;;;6.35;3.92;;;17.80;32.50;;;;;;8265311;28;20056;-48
2020/12/03 05:08:04;;;;;;;6.10;4.43;;;17.80;32.50;;;;;;8264813;28;20042;-48
2020/12/03 05:12:28;;;;;;;6.85;4.70;;;17.80;32.40;;;;;;8315792;28;20042;-47
2020/12/03 05:16:52;;;;;;;6.65;4.60;;;17.80;32.40;;;;;;8290521;28;20045;-47
2020/12/03 05:20:55;;;;;;;6.38;4.05;;;17.80;32.30;;;;;;8297972;28;20045;-47
2020/12/03 05:24:55;;;;;;;6.38;3.83;;;17.70;32.20;;;;;;8291288;28;20045;-47
2020/12/03 05:29:01;;;;;;;5.37;4.10;;;17.70;32.20;;;;;;8309572;28;20497;-47
2020/12/03 05:33:02;;;;;;;7.78;4.38;;;17.70;32.20;;;;;;8324443;28;20034;-48
2020/12/03 05:37:09;;;;;;;6.93;4.73;;;17.70;32.20;;;;;;8322842;28;20034;-47
2020/12/03 05:41:13;;;;;;;8.20;4.68;;;17.70;32.20;;;;;;8314116;28;20034;-49
2020/12/03 05:45:40;;;;;;;6.00;4.30;;;17.60;32.20;;;;;;8279534;28;20057;-47
2020/12/03 05:49:41;;;;;;;6.38;4.30;;;17.60;32.20;;;;;;8331807;28;20521;-47
2020/12/03 05:53:56;;;;;;;6.40;4.07;;;17.60;32.30;;;;;;8284215;28;20030;-47
2020/12/03 05:58:41;;;;;;;5.47;4.10;;;17.60;32.30;;;;;;8308685;28;20498;-48
2020/12/03 06:03:19;;;;;;;6.35;4.22;;;17.60;32.40;;;;;;8280946;28;20045;-48
2020/12/03 06:07:52;;;;;;;5.95;3.83;;;17.60;32.50;;;;;;8264114;28;20046;-46
2020/12/03 06:12:17;;;;;;;5.03;4.20;;;17.60;32.50;;;;;;8265307;28;20050;-47
2020/12/03 06:16:52;;;;;;;6.22;4.20;;;17.60;32.50;;;;;;8272425;28;20437;-47
2020/12/03 06:21:01;;;;;;;6.20;4.10;;;17.70;32.50;;;;;;8314136;28;20107;-47
2020/12/03 06:25:32;;;;;;;7.32;4.28;;;17.70;32.40;;;;;;8272451;28;20046;-47
2020/12/03 06:29:49;;;;;;;5.25;3.92;;;17.70;32.50;;;;;;8297494;28;20083;-48
2020/12/03 06:33:59;;;;;;;7.55;4.30;;;17.70;32.40;;;;;;8295624;28;20034;-47
2020/12/03 06:38:37;;;;;;;6.18;4.43;;;17.70;32.40;;;;;;8284541;28;20491;-46
2020/12/03 06:42:50;;;;;;;5.45;4.13;;;17.70;32.40;;;;;;8289205;28;20577;-47
2020/12/03 06:47:25;;;;;;;6.68;4.15;;;17.70;32.40;;;;;;8301128;28;20049;-47
2020/12/03 06:51:44;;;;;;;7.50;4.10;;;17.70;32.30;;;;;;8295048;28;20042;-45
2020/12/03 06:56:03;;;;;;;6.20;4.35;;;17.70;32.30;;;;;;8296411;28;20046;-46
2020/12/03 07:00:42;;;;;;;6.97;4.47;;;17.70;32.30;;;;;;8274409;28;20093;-47
2020/12/03 07:05:12;;;;;;;6.30;4.20;;;17.70;32.30;;;;;;8262544;28;20051;-46
2020/12/03 07:09:37;;;;;;;7.10;4.63;;;17.70;32.30;;;;;;8287741;28;20073;-47
2020/12/03 07:13:44;;;;;;;8.55;4.88;;;17.70;32.30;;;;;;8262182;28;20038;-49
2020/12/03 07:18:14;;;;;;;7.80;5.10;;;17.60;32.30;;;;;;8267849;28;20046;-47
2020/12/03 07:22:35;;;;;;;6.53;4.50;;;17.60;32.40;;;;;;8261684;28;20034;-47
2020/12/03 07:27:08;;;;;;;5.63;4.13;;;17.60;32.40;;;;;;8263147;28;20061;-48
2020/12/03 07:31:20;;;;;;;6.30;4.10;;;17.60;32.40;;;;;;8307431;28;20037;-48
2020/12/03 07:35:33;;;;;;;6.75;3.88;;;17.60;32.50;;;;;;8318880;28;20495;-47
2020/12/03 07:39:36;;;;;;;5.68;4.10;;;17.70;32.50;;;;;;8268678;28;20043;-50
2020/12/03 07:43:38;;;;;;;6.63;4.35;;;17.70;32.50;;;;;;8267031;28;20038;-49
2020/12/03 07:47:39;;;;;;;6.32;4.10;;;17.70;32.50;;;;;;8262734;28;20368;-47
2020/12/03 07:52:00;;;;;;;5.33;4.07;;;17.70;32.50;;;;;;8286262;28;20034;-46
2020/12/03 07:56:32;;;;;;;7.10;4.47;;;17.70;32.50;;;;;;8262275;28;20403;-46
2020/12/03 08:00:33;;;;;;;;;;;17.80;32.50;;;;;;8261243;28;20046;-46
2020/12/03 08:04:36;;;;;;;6.07;4.15;;;17.80;32.40;;;;;;8266376;28;19925;-47
2020/12/03 08:08:39;;;;;;;5.13;3.78;;;17.80;32.40;;;;;;8262596;28;20141;-46
2020/12/03 08:13:18;;;;;;;4.60;3.50;;;17.80;32.40;;;;;;8299597;28;20049;-46
2020/12/03 08:17:21;;;;;;;5.82;3.97;;;17.80;32.40;;;;;;8292855;28;20041;-47
2020/12/03 08:21:36;;;;;;;6.40;3.75;;;17.80;32.40;;;;;;8315463;28;20037;-47
2020/12/03 08:25:43;;;;;;;4.50;3.78;;;17.80;32.30;;;;;;8274269;28;20046;-47
2020/12/03 08:29:43;;;;;;;5.68;4.50;;;17.70;32.80;;;;;;8275307;28;20130;-47
2020/12/03 08:33:43;;;;;;;5.80;4.23;;;17.70;32.20;;;;;;8286496;28;20040;-46
2020/12/03 08:37:44;;;;;;;6.73;3.90;;;17.70;32.20;;;;;;8293243;28;20030;-47
2020/12/03 08:41:49;;;;;;;5.73;4.17;;;17.70;32.30;;;;;;8297585;28;20061;-47
2020/12/03 08:46:04;;;;;;;5.75;3.85;;;17.70;32.30;;;;;;8287595;28;20050;-48
2020/12/03 08:50:13;;;;;;;5.55;4.15;;;17.60;32.30;;;;;;8260730;28;20046;-47
2020/12/03 08:54:13;;;;;;;5.82;3.95;;;17.60;32.30;;;;;;8260553;28;20483;-47
2020/12/03 08:58:20;;;;;;;6.17;3.87;;;17.60;32.40;;;;;;8258689;28;20092;-46
2020/12/03 09:02:21;;;;;;;4.93;3.75;;;17.60;32.50;;;;;;8264749;28;20042;-47
2020/12/03 09:06:21;;;;;;;5.33;3.90;;;17.70;32.50;;;;;;8284132;28;20046;-47
2020/12/03 09:10:22;;;;;;;5.30;3.50;;;17.70;32.50;;;;;;8258642;28;20030;-46
2020/12/03 09:14:26;;;;;;;6.57;4.17;;;17.70;33.00;;;;;;8270337;28;20427;-46
2020/12/03 09:18:27;;;;;;;5.00;3.83;;;17.80;32.50;;;;;;8290326;28;20630;-45
2020/12/03 09:22:28;;;;;;;4.90;3.65;;;17.80;32.50;;;;;;8286875;28;20053;-45
2020/12/03 09:26:32;;;;;;;5.82;3.67;;;17.80;32.40;;;;;;8276869;28;20110;-45
2020/12/03 09:30:33;;;;;;;5.15;3.97;;;17.90;32.50;;;;;;8266142;28;20387;-45
2020/12/03 09:34:36;;;;;;;5.00;3.88;;;17.80;32.40;;;;;;8292263;28;20434;-45
2020/12/03 09:38:37;;;;;;;5.50;3.58;;;17.90;32.30;;;;;;8296293;28;20121;-49
2020/12/03 09:42:48;;;;;;;6.40;3.42;;;17.90;32.30;;;;;;8288299;28;20058;-45
2020/12/03 09:46:52;;;;;;;4.72;3.25;;;17.90;32.30;;;;;;8271487;28;20109;-45
2020/12/03 09:50:53;;;;;;;7.07;3.60;;;17.90;32.30;;;;;;8292221;28;20501;-45
2020/12/03 09:54:53;;;;;;;9.53;4.40;;;17.90;32.30;;;;;;8290022;28;20038;-46
2020/12/03 09:58:58;;;;;;;5.53;3.47;;;17.90;32.30;;;;;;8296520;28;20109;-45
2020/12/03 10:03:29;;;;;;;5.20;3.20;;;17.80;32.20;;;;;;8291510;28;20038;-45
2020/12/03 10:08:03;;;;;;;4.47;3.30;;;17.90;32.20;;;;;;8300551;28;20053;-45
2020/12/03 10:12:33;;;;;;;4.90;3.30;;;17.80;32.20;;;;;;8277402;28;20077;-46
2020/12/03 10:16:36;;;;;;;5.10;3.42;;;17.80;32.20;;;;;;8270532;28;20038;-48
2020/12/03 10:20:37;;;;;;;4.88;3.50;;;17.80;32.30;;;;;;8295705;28;20129;-47
2020/12/03 10:24:54;;;;;;;6.13;3.80;;;17.70;32.20;;;;;;8265854;28;20507;-49
2020/12/03 10:29:13;;;;;;;4.28;3.33;;;17.70;32.30;;;;;;8291049;28;20041;-45
2020/12/03 10:33:15;;;;;;;4.25;2.78;;;17.70;32.50;;;;;;8269269;28;20066;-46
2020/12/03 10:37:24;;;;;;;5.68;3.28;;;17.70;32.50;;;;;;8300992;28;20033;-45
2020/12/03 10:41:33;;;;;;;5.00;3.28;;;17.80;32.50;;;;;;8334230;28;20038;-45
2020/12/03 10:45:39;;;;;;;5.07;3.58;;;17.80;32.40;;;;;;8298664;28;20054;-46
2020/12/03 10:49:42;;;;;;;5.93;3.17;;;17.90;32.50;;;;;;8296614;28;20046;-46
2020/12/03 10:53:46;;;;;;;4.40;2.95;;;17.90;32.40;;;;;;8296535;28;20036;-46
2020/12/03 10:57:57;;;;;;;5.13;3.65;;;17.90;32.30;;;;;;8291446;28;20047;-45
2020/12/03 11:01:59;;;;;;;5.20;3.65;;;17.90;32.20;;;;;;8260172;28;20097;-46
2020/12/03 11:06:00;;;;;;;4.70;3.20;;;18.00;32.20;;;;;;8317736;28;20054;-48
2020/12/03 11:10:01;;;;;;;4.67;3.20;;;18.00;32.20;;;;;;8326250;28;20142;-46
2020/12/03 11:14:08;;;;;;;6.25;3.60;;;18.00;32.10;;;;;;8304783;28;20041;-46
2020/12/03 11:18:17;;;;;;;5.40;3.22;;;18.00;32.10;;;;;;8263396;28;20121;-46
2020/12/03 11:22:43;;;;;;;4.60;3.30;;;18.00;32.10;;;;;;8266157;28;20046;-47
2020/12/03 11:26:45;;;;;;;4.25;2.88;;;18.00;32.20;;;;;;8263189;28;20393;-47
2020/12/03 11:31:03;;;;;;;4.82;3.03;;;17.90;32.10;;;;;;8280555;28;20057;-47
2020/12/03 11:35:04;;;;;;;6.80;4.10;;;17.90;32.20;;;;;;8294512;28;20494;-46
2020/12/03 11:39:06;;;;;;;5.03;3.00;;;17.90;32.10;;;;;;8317001;28;20054;-46
2020/12/03 11:43:31;;;;;;;8.02;4.70;;;17.90;32.20;;;;;;8330479;28;20132;-49
2020/12/03 11:51:42;;;;;;;9.50;5.30;;;17.80;32.20;;;;;;8277804;28;20027;-47
2020/12/03 11:55:42;;;;;;;5.47;4.13;;;17.80;32.20;;;;;;8262305;28;20403;-49
2020/12/03 11:59:43;;;;;;;5.97;4.13;;;17.80;32.30;;;;;;8263707;28;20125;-47
2020/12/03 12:03:47;;;;;;;7.57;4.40;;;17.80;32.40;;;;;;8297316;28;20068;-47
2020/12/03 12:08:00;;;;;;;5.72;3.78;;;17.80;32.40;;;;;;8280577;28;20121;-46
2020/12/03 12:12:01;;;;;;;8.18;5.05;;;17.90;32.40;;;;;;8294806;28;20037;-45
2020/12/03 12:16:01;;;;;;;5.77;4.13;;;17.90;32.30;;;;;;8262786;28;20049;-48
2020/12/03 12:20:07;;;;;;;5.50;4.20;;;17.90;32.30;;;;;;8265787;28;20121;-47
2020/12/03 12:24:08;;;;;;;6.55;4.57;;;17.90;32.30;;;;;;8283537;28;20060;-46
2020/12/03 12:28:08;;;;;;;7.27;4.13;;;18.00;32.30;;;;;;8306851;28;20038;-46
2020/12/03 12:32:09;;;;;;;6.37;4.00;;;18.00;32.30;;;;;;8281976;28;20537;-46
2020/12/03 12:36:09;;;;;;;9.53;5.10;;;18.00;32.30;;;;;;8260962;28;20066;-47
2020/12/03 12:40:10;;;;;;;7.43;4.10;;;18.10;32.20;;;;;;8263584;28;20057;-47
2020/12/03 12:44:11;;;;;;;5.70;4.28;;;18.10;32.20;;;;;;8261290;28;20483;-45
2020/12/03 12:48:11;;;;;;;5.43;4.03;;;18.10;32.20;;;;;;8260515;28;20396;-49
2020/12/03 12:52:12;;;;;;;6.73;4.30;;;18.10;32.10;;;;;;8270197;28;20470;-46
2020/12/03 12:56:13;;;;;;;6.20;4.50;;;18.10;32.10;;;;;;8314701;28;20030;-48
2020/12/03 13:00:14;;;;;;;;;;;18.00;32.10;;;;;;8287798;28;20037;-47
2020/12/03 13:04:15;;;;;;;6.32;4.28;;;18.00;32.10;;;;;;8301930;28;19931;-47
2020/12/03 13:08:16;;;;;;;;;;;18.00;32.10;;;;;;8284259;28;20035;-46
2020/12/03 13:12:17;;;;;;;4.75;3.70;;;18.00;32.10;;;;;;8264497;28;19914;-47
2020/12/03 13:16:17;;;;;;;4.43;3.63;;;18.00;32.20;;;;;;8282573;28;20129;-46
2020/12/03 13:20:18;;;;;;;4.93;3.83;;;18.00;32.20;;;;;;8259958;28;20026;-46
2020/12/03 13:24:18;;;;;;;5.77;3.70;;;17.90;32.10;;;;;;8260421;28;20050;-47
2020/12/03 13:28:19;;;;;;;4.73;3.73;;;17.90;32.20;;;;;;8258402;28;20499;-46
2020/12/03 13:32:19;;;;;;;5.67;3.83;;;17.90;32.20;;;;;;8279970;28;20046;-46
2020/12/03 13:36:20;;;;;;;5.33;3.13;;;17.90;32.30;;;;;;8268588;28;20074;-47
2020/12/03 13:40:22;;;;;;;4.82;3.28;;;17.90;32.30;;;;;;8258241;28;20035;-46
2020/12/03 13:44:23;;;;;;;5.57;3.78;;;17.90;32.30;;;;;;8254476;28;20041;-45
2020/12/03 13:48:24;;;;;;;4.73;3.67;;;17.90;32.30;;;;;;8257546;28;20090;-44
2020/12/03 13:52:25;;;;;;;5.88;3.60;;;18.00;32.30;;;;;;8267741;28;20034;-47
2020/12/03 13:56:25;;;;;;;4.50;3.53;;;18.00;32.30;;;;;;8289653;28;20544;-47
2020/12/03 14:00:26;;;;;;;4.50;3.53;;;18.10;32.30;;;;;;8246878;28;20043;-47
2020/12/03 14:04:27;;;;;;;5.80;4.68;;;18.10;32.30;;;;;;8291756;28;20061;-48
2020/12/03 14:08:28;;;;;;;4.73;3.57;;;18.10;32.30;;;;;;8280490;28;20034;-47
2020/12/03 14:12:28;;;;;;;4.47;3.60;;;18.20;32.20;;;;;;8311649;28;20490;-47
2020/12/03 14:16:29;;;;;;;4.83;3.23;;;18.20;32.20;;;;;;8293530;28;20457;-47
2020/12/03 14:20:29;;;;;;;5.07;3.70;;;18.20;32.10;;;;;;8280491;28;20045;-47
2020/12/03 14:24:30;;;;;;;4.83;3.77;;;18.20;32.10;;;;;;8268924;28;20063;-47
2020/12/03 14:28:30;;;;;;;5.10;3.40;;;18.20;32.10;;;;;;8288542;28;20049;-48
2020/12/03 14:32:31;;;;;;;4.90;3.53;;;18.20;32.10;;;;;;8259752;28;20042;-47
2020/12/03 14:36:32;;;;;;;4.03;3.43;;;18.20;32.10;;;;;;8274967;28;20482;-45
2020/12/03 14:40:33;;;;;;;4.00;3.50;;;18.10;32.00;;;;;;8269086;28;20022;-46
2020/12/03 14:44:33;;;;;;;5.37;3.30;;;18.10;32.10;;;;;;8264321;28;20073;-46
2020/12/03 14:48:34;;;;;;;4.57;3.47;;;18.10;32.00;;;;;;8289308;28;20269;-47
2020/12/03 14:52:36;;;;;;;5.33;3.73;;;18.10;32.10;;;;;;8296372;28;20045;-45
2020/12/03 14:56:37;;;;;;;4.30;3.30;;;18.00;32.10;;;;;;8296781;28;20092;-44
2020/12/03 15:00:38;;;;;;;5.30;3.40;;;18.00;32.00;;;;;;8299232;28;20033;-46
2020/12/03 15:04:41;;;;;;;4.28;3.25;;;17.90;32.00;;;;;;8296398;28;20052;-46
2020/12/03 15:08:44;;;;;;;3.85;3.28;;;17.90;32.00;;;;;;8295446;28;20029;-45
2020/12/03 15:12:44;;;;;;;4.47;3.30;;;17.90;32.20;;;;;;8292563;28;20089;-43
2020/12/03 15:16:45;;;;;;;4.03;2.80;;;17.90;32.30;;;;;;8267910;28;20030;-44
2020/12/03 15:20:45;;;;;;;5.33;3.30;;;17.90;32.30;;;;;;8281472;28;20038;-45
2020/12/03 15:24:46;;;;;;;5.40;3.23;;;17.90;32.20;;;;;;8290804;28;20063;-45
2020/12/03 15:28:46;;;;;;;4.53;2.83;;;18.00;32.20;;;;;;8257869;28;20039;-45
2020/12/03 15:32:50;;;;;;;4.70;3.23;;;18.00;32.20;;;;;;8233540;28;20054;-44
2020/12/03 15:37:02;;;;;;;5.93;3.60;;;18.10;32.30;;;;;;8267933;28;20041;-44
2020/12/03 15:41:02;;;;;;;6.35;4.53;;;18.10;32.20;;;;;;8306296;28;20117;-46
2020/12/03 15:45:04;;;;;;;6.20;3.80;;;18.10;32.20;;;;;;8284487;28;20046;-45
2020/12/03 15:49:04;;;;;;;6.75;4.10;;;18.10;32.10;;;;;;8293271;28;20026;-44
2020/12/03 15:53:05;;;;;;;5.80;3.97;;;18.20;32.20;;;;;;8299244;28;20569;-44
2020/12/03 15:57:06;;;;;;;7.70;4.40;;;18.10;32.10;;;;;;8272433;28;20038;-44
2020/12/03 16:01:07;;;;;;;7.25;4.28;;;18.10;32.10;;;;;;8260451;28;20057;-45
2020/12/03 16:05:07;;;;;;;7.73;4.50;;;18.10;32.00;;;;;;8262080;28;20054;-44
2020/12/03 16:09:08;;;;;;;6.07;4.07;;;18.00;31.90;;;;;;8288562;28;20026;-45
2020/12/03 16:13:08;;;;;;;6.90;4.40;;;18.00;32.00;;;;;;8286329;28;20044;-44
2020/12/03 16:17:09;;;;;;;6.03;4.20;;;18.10;32.00;;;;;;8261303;28;20042;-46
2020/12/03 16:21:10;;;;;;;6.03;3.73;;;18.00;32.00;;;;;;8284305;28;20037;-46
2020/12/03 16:25:10;;;;;;;6.50;4.13;;;18.00;31.90;;;;;;8261053;28;20522;-45
2020/12/03 16:29:11;;;;;;;5.70;3.73;;;18.00;32.00;;;;;;8257172;28;20039;-48
2020/12/03 16:33:12;;;;;;;7.18;4.50;;;18.00;32.10;;;;;;8271169;28;20405;-47
2020/12/03 16:37:12;;;;;;;7.20;4.40;;;17.90;32.10;;;;;;8260234;28;20502;-47
2020/12/03 16:41:13;;;;;;;9.30;4.67;;;17.90;32.00;;;;;;8260751;28;20035;-46
2020/12/03 16:45:13;;;;;;;7.03;4.23;;;17.90;32.10;;;;;;8288135;28;20478;-44
2020/12/03 16:49:14;;;;;;;7.30;3.73;;;17.80;32.00;;;;;;8260168;28;20034;-44
2020/12/03 16:53:16;;;;;;;7.35;4.38;;;17.90;32.20;;;;;;8248796;28;20496;-46
2020/12/03 16:57:17;;;;;;;5.90;4.05;;;17.90;32.20;;;;;;8260421;28;20464;-44
2020/12/03 17:01:17;;;;;;;7.33;3.77;;;17.90;32.10;;;;;;8266099;28;20115;-44
2020/12/03 17:05:18;;;;;;;5.13;3.80;;;17.90;32.10;;;;;;8281543;28;20054;-44
2020/12/03 17:09:18;;;;;;;4.97;3.37;;;18.00;32.10;;;;;;8283970;28;20045;-44
2020/12/03 17:13:19;;;;;;;5.03;3.90;;;18.00;32.10;;;;;;8266626;28;20100;-45
2020/12/03 17:17:20;;;;;;;5.63;4.00;;;18.00;32.10;;;;;;8296861;28;20316;-45
2020/12/03 17:21:20;;;;;;;5.53;3.93;;;18.00;32.00;;;;;;8305240;28;20064;-44
2020/12/03 17:25:21;;;;;;;6.20;3.90;;;18.10;31.90;;;;;;8262882;28;20053;-44
2020/12/03 17:29:21;;;;;;;4.87;3.50;;;18.00;31.80;;;;;;8249857;28;20038;-47
2020/12/03 17:33:22;;;;;;;5.80;4.03;;;18.00;31.90;;;;;;8235960;28;20034;-43
2020/12/03 17:37:22;;;;;;;5.87;3.63;;;18.00;31.80;;;;;;8262496;28;20036;-43
2020/12/03 17:41:23;;;;;;;6.43;3.73;;;18.00;31.80;;;;;;8275573;28;20038;-44
2020/12/03 17:45:23;;;;;;;5.03;3.33;;;18.00;31.80;;;;;;8295257;28;20041;-44
2020/12/03 17:49:24;;;;;;;5.20;3.07;;;18.00;31.80;;;;;;8302045;28;20056;-46
2020/12/03 17:53:26;;;;;;;5.17;3.80;;;18.00;31.80;;;;;;8296751;28;20120;-48
2020/12/03 17:57:26;;;;;;;5.35;3.75;;;17.90;31.80;;;;;;8293088;28;20073;-45
2020/12/03 18:01:27;;;;;;;6.37;3.90;;;17.90;31.80;;;;;;8274528;28;20038;-46
2020/12/03 18:05:27;;;;;;;6.17;3.63;;;17.90;31.90;;;;;;8281328;28;20053;-43
2020/12/03 18:09:28;;;;;;;5.30;4.10;;;17.80;32.30;;;;;;8284634;28;20111;-46
2020/12/03 18:13:28;;;;;;;5.53;3.87;;;17.80;31.90;;;;;;8317059;28;20495;-47
2020/12/03 18:17:29;;;;;;;5.13;3.30;;;17.80;32.00;;;;;;8283046;28;20499;-46
2020/12/03 18:21:30;;;;;;;6.67;3.83;;;17.80;32.00;;;;;;8272030;28;20038;-45
2020/12/03 18:25:31;;;;;;;5.57;3.77;;;17.90;32.00;;;;;;8297346;28;20056;-46
2020/12/03 18:29:32;;;;;;;4.97;3.35;;;17.90;32.00;;;;;;8301826;28;20038;-48
2020/12/03 18:33:32;;;;;;;4.37;2.87;;;17.90;31.90;;;;;;8295382;28;20034;-46
2020/12/03 18:37:33;;;;;;;7.17;4.30;;;17.90;31.90;;;;;;8318924;28;20087;-46
2020/12/03 18:41:53;;;;;;;5.63;3.60;;;18.00;31.90;;;;;;8317013;28;20053;-46
2020/12/03 18:45:53;;;;;;;4.80;3.55;;;18.00;31.90;;;;;;8270873;28;20050;-46
2020/12/03 18:49:54;;;;;;;4.07;3.20;;;18.00;31.80;;;;;;8289078;28;20120;-47
2020/12/03 18:53:54;;;;;;;4.77;3.20;;;18.00;31.80;;;;;;8263754;28;20277;-46
2020/12/03 18:57:55;;;;;;;5.53;3.20;;;18.00;31.70;;;;;;8291993;28;20034;-46
2020/12/03 19:01:55;;;;;;;5.77;3.93;;;18.00;31.70;;;;;;8277387;28;20042;-46
2020/12/03 19:05:56;;;;;;;5.33;3.57;;;18.00;31.70;;;;;;8262885;28;20046;-46
2020/12/03 19:09:57;;;;;;;7.07;4.43;;;18.00;31.70;;;;;;8290120;28;20062;-49
2020/12/03 19:13:57;;;;;;;7.27;4.17;;;18.00;31.70;;;;;;8263737;28;20072;-46
2020/12/03 19:17:58;;;;;;;5.10;3.83;;;17.90;31.60;;;;;;8263431;28;20046;-46
2020/12/03 19:21:59;;;;;;;6.47;4.30;;;17.90;31.70;;;;;;8286510;28;20493;-49
2020/12/03 19:26:00;;;;;;;6.30;4.25;;;17.90;31.60;;;;;;8280805;28;20049;-46
2020/12/03 19:30:00;;;;;;;6.07;4.07;;;17.90;31.70;;;;;;8274486;28;20033;-46
2020/12/03 19:34:01;;;;;;;5.73;4.33;;;17.80;31.70;;;;;;8261397;28;20125;-47
2020/12/03 19:38:01;;;;;;;6.07;4.20;;;17.80;31.70;;;;;;8282455;28;20038;-46
2020/12/03 19:42:02;;;;;;;6.43;3.83;;;17.80;31.80;;;;;;8310427;28;20073;-46
2020/12/03 19:46:04;;;;;;;5.27;3.63;;;17.80;31.80;;;;;;8263864;28;20462;-45
2020/12/03 19:50:07;;;;;;;5.95;3.58;;;17.80;31.90;;;;;;8276547;28;20030;-46
2020/12/03 19:54:08;;;;;;;5.68;3.83;;;17.80;31.90;;;;;;8294676;28;20033;-46
2020/12/03 19:58:08;;;;;;;7.17;4.40;;;17.80;31.90;;;;;;8286825;28;20038;-46
2020/12/03 20:02:09;;;;;;;6.30;4.47;;;17.90;31.90;;;;;;8281444;28;20034;-49
2020/12/03 20:06:10;;;;;;;6.30;3.97;;;17.90;31.90;;;;;;8293626;28;20537;-46
2020/12/03 20:10:10;;;;;;;5.47;4.20;;;17.90;31.80;;;;;;8307483;28;20076;-46
2020/12/03 20:14:11;;;;;;;6.07;4.20;;;17.90;31.80;;;;;;8307136;28;20038;-45
2020/12/03 20:18:12;;;;;;;6.65;4.10;;;18.00;31.80;;;;;;8266281;28;20042;-47
2020/12/03 20:22:12;;;;;;;7.17;4.83;;;18.00;31.70;;;;;;8284694;28;20117;-46
2020/12/03 20:26:17;;;;;;;5.00;4.07;;;18.00;31.60;;;;;;8261665;28;20046;-46
2020/12/03 20:30:18;;;;;;;6.30;4.05;;;18.00;31.70;;;;;;8261579;28;20045;-45
2020/12/03 20:34:18;;;;;;;6.63;4.50;;;18.00;31.60;;;;;;8295788;28;20026;-47
2020/12/03 20:38:19;;;;;;;5.57;4.37;;;18.00;31.60;;;;;;8293777;28;20115;-46
2020/12/03 20:42:19;;;;;;;6.87;4.73;;;17.90;31.60;;;;;;8269453;28;20089;-47
2020/12/03 20:46:20;;;;;;;6.30;4.83;;;17.90;31.60;;;;;;8266561;28;20076;-47
2020/12/03 20:50:20;;;;;;;6.60;4.80;;;17.90;31.60;;;;;;8277196;28;20070;-47
2020/12/03 20:54:21;;;;;;;6.87;5.00;;;17.90;31.50;;;;;;8289295;28;20033;-45
2020/12/03 20:58:22;;;;;;;7.03;4.33;;;17.80;31.50;;;;;;8308523;28;20058;-47
2020/12/03 21:02:22;;;;;;;6.97;4.67;;;17.80;31.70;;;;;;8293343;28;20038;-47
2020/12/03 21:06:22;;;;;;;8.07;5.00;;;17.80;31.80;;;;;;8297199;28;20083;-44
2020/12/03 21:10:23;;;;;;;6.40;4.80;;;17.80;31.60;;;;;;8329695;28;20036;-48
2020/12/03 21:14:24;;;;;;;7.43;4.80;;;17.70;31.60;;;;;;8307679;28;20501;-46
2020/12/03 21:18:24;;;;;;;6.53;4.57;;;17.70;31.70;;;;;;8296378;28;20430;-44